Time;durP1;ratioP1;P1;durP2;ratioP2;P2;SDS_P1;SDS_P2;PMS_P1;PMS_P2;Temp;Humidity;BMP_temperature;BMP_pressure;BME280_temperature;BME280_humidity;BME280_pressure;Samples;Min_cycle;Max_cycle;Signal;HPM_P1;HPM_P2
2021/12/26 05:01:31;;;;;;;3.10;1.55;;;-5.10;99.90;;;;;;5538402;23;20283;-85
2021/12/26 05:03:57;;;;;;;4.55;1.80;;;-5.10;99.90;;;;;;4996464;28;20042;-84
2021/12/26 05:06:23;;;;;;;4.57;1.80;;;-5.10;99.90;;;;;;5012713;28;20034;-83
2021/12/26 05:08:49;;;;;;;6.43;1.80;;;-5.00;99.90;;;;;;5012950;28;20387;-83
2021/12/26 05:11:14;;;;;;;4.22;1.98;;;-5.10;99.90;;;;;;5004165;28;20043;-85
2021/12/26 05:13:40;;;;;;;3.97;1.65;;;-5.10;99.90;;;;;;4992939;28;20046;-86
2021/12/26 05:16:06;;;;;;;4.32;1.40;;;-5.10;99.90;;;;;;4994679;28;20526;-85
2021/12/26 05:18:31;;;;;;;3.72;1.70;;;-5.10;99.90;;;;;;4977257;28;20132;-85
2021/12/26 05:20:57;;;;;;;6.15;1.83;;;-5.10;99.90;;;;;;4993076;28;20038;-86
2021/12/26 05:23:24;;;;;;;3.83;1.67;;;-5.10;99.90;;;;;;4992744;28;20053;-84
2021/12/26 05:25:49;;;;;;;4.35;1.80;;;-5.10;99.90;;;;;;4994220;28;20041;-86
2021/12/26 05:28:15;;;;;;;4.35;1.77;;;-5.20;99.90;;;;;;4993038;28;20488;-83
2021/12/26 05:30:40;;;;;;;2.90;1.40;;;-5.10;99.90;;;;;;4994336;28;20545;-85
2021/12/26 05:33:06;;;;;;;3.33;1.55;;;-5.10;99.90;;;;;;4992599;28;20050;-86
2021/12/26 05:35:32;;;;;;;4.75;1.73;;;-5.10;99.90;;;;;;4993180;28;20169;-84
2021/12/26 05:37:58;;;;;;;4.35;1.60;;;-5.10;99.90;;;;;;4992852;28;20034;-85
2021/12/26 05:40:24;;;;;;;4.07;1.80;;;-5.10;99.90;;;;;;4992597;28;20045;-86
2021/12/26 05:42:50;;;;;;;5.25;1.80;;;-5.10;99.90;;;;;;4992648;28;20054;-85
2021/12/26 05:45:16;;;;;;;4.75;1.95;;;-5.20;99.90;;;;;;4976396;28;20076;-87
2021/12/26 05:47:42;;;;;;;3.80;1.70;;;-5.20;99.90;;;;;;4992543;28;20042;-87
2021/12/26 05:50:11;;;;;;;4.93;2.13;;;-5.20;99.90;;;;;;4992800;28;20080;-85
2021/12/26 05:52:37;;;;;;;4.05;1.85;;;-5.20;99.90;;;;;;4991713;28;20134;-85
2021/12/26 05:55:04;;;;;;;4.25;1.95;;;-5.20;99.90;;;;;;4992788;28;20117;-86
2021/12/26 05:57:30;;;;;;;5.32;1.90;;;-5.20;99.90;;;;;;4992413;28;20049;-85
2021/12/26 05:59:55;;;;;;;4.65;1.92;;;-5.30;99.90;;;;;;4993926;28;20042;-87
2021/12/26 06:02:21;;;;;;;4.15;1.95;;;-5.30;99.90;;;;;;4992267;28;20125;-85
2021/12/26 06:04:47;;;;;;;5.80;1.75;;;-5.30;99.90;;;;;;4993833;28;20042;-84
2021/12/26 06:07:12;;;;;;;3.75;2.00;;;-5.30;99.90;;;;;;4993882;28;20034;-85
2021/12/26 06:09:38;;;;;;;4.82;2.10;;;-5.30;99.90;;;;;;4992225;28;20042;-86
2021/12/26 06:12:04;;;;;;;5.00;2.50;;;-5.30;99.90;;;;;;4992599;28;20093;-86
2021/12/26 06:14:30;;;;;;;5.65;1.85;;;-5.40;99.90;;;;;;4992489;28;20046;-85
2021/12/26 06:16:56;;;;;;;4.57;2.17;;;-5.40;99.90;;;;;;4992340;28;20050;-85
2021/12/26 06:19:21;;;;;;;3.90;1.83;;;-5.40;99.90;;;;;;4992323;28;20050;-84
2021/12/26 06:21:47;;;;;;;4.22;1.92;;;-5.40;99.90;;;;;;4992154;28;20054;-85
2021/12/26 06:24:12;;;;;;;6.82;2.10;;;-5.40;99.90;;;;;;4992489;28;20396;-86
2021/12/26 06:26:38;;;;;;;4.15;1.65;;;-5.30;99.90;;;;;;4992219;28;20088;-85
2021/12/26 06:29:04;;;;;;;4.47;2.00;;;-5.40;99.90;;;;;;4992142;28;20043;-85
2021/12/26 06:31:29;;;;;;;4.97;1.73;;;-5.30;99.90;;;;;;4992152;28;20557;-84
2021/12/26 06:33:56;;;;;;;5.15;1.80;;;-5.30;99.90;;;;;;4993255;28;20508;-85
2021/12/26 06:36:22;;;;;;;4.40;1.80;;;-5.30;99.90;;;;;;4992520;28;20387;-85
2021/12/26 06:38:48;;;;;;;3.47;1.80;;;-5.30;99.90;;;;;;4976214;28;20055;-84
2021/12/26 06:41:15;;;;;;;3.70;1.80;;;-5.30;99.90;;;;;;4992025;28;20137;-85
2021/12/26 06:43:41;;;;;;;3.47;1.80;;;-5.30;99.90;;;;;;4992374;28;20128;-85
2021/12/26 06:46:07;;;;;;;3.85;1.60;;;-5.30;99.90;;;;;;4991964;28;20100;-85
2021/12/26 06:48:34;;;;;;;4.03;2.15;;;-5.30;99.90;;;;;;4992058;28;20488;-85
2021/12/26 06:51:01;;;;;;;5.38;2.00;;;-5.30;99.90;;;;;;4991927;28;20037;-84
2021/12/26 06:53:26;;;;;;;3.08;1.55;;;-5.30;99.90;;;;;;4991984;28;20081;-84
2021/12/26 06:55:52;;;;;;;4.35;1.85;;;-5.20;99.90;;;;;;4991884;28;20074;-88
2021/12/26 06:58:18;;;;;;;5.68;1.90;;;-5.20;99.90;;;;;;4992274;28;20054;-86
2021/12/26 07:00:44;;;;;;;5.00;1.95;;;-5.20;99.90;;;;;;4992201;28;20361;-85
2021/12/26 07:03:10;;;;;;;4.32;1.98;;;-5.20;99.90;;;;;;4991611;28;20125;-84
2021/12/26 07:05:36;;;;;;;5.65;1.80;;;-5.20;99.90;;;;;;4995308;28;20038;-83
2021/12/26 07:08:03;;;;;;;3.97;1.90;;;-5.20;99.90;;;;;;4995494;28;20041;-85
2021/12/26 07:10:28;;;;;;;5.32;1.77;;;-5.20;99.90;;;;;;4995083;28;20077;-84
2021/12/26 07:12:54;;;;;;;3.45;1.63;;;-5.20;99.90;;;;;;4979074;28;20081;-86
2021/12/26 07:15:20;;;;;;;5.00;1.80;;;-5.20;99.90;;;;;;4995511;28;20078;-86
2021/12/26 07:17:56;;;;;;;5.93;2.00;;;-5.20;99.90;;;;;;4996195;28;20125;-87
2021/12/26 07:20:22;;;;;;;3.60;1.95;;;-5.10;99.90;;;;;;4995194;28;20046;-86
2021/12/26 07:22:48;;;;;;;4.00;2.55;;;-5.10;99.90;;;;;;4995070;28;20126;-85
2021/12/26 07:25:14;;;;;;;5.90;2.20;;;-5.10;99.90;;;;;;4994984;28;20035;-84
2021/12/26 07:27:40;;;;;;;4.10;1.70;;;-5.00;99.90;;;;;;4995268;28;20038;-84
2021/12/26 07:30:07;;;;;;;4.65;2.20;;;-5.10;99.90;;;;;;4994906;28;20512;-83
2021/12/26 07:32:33;;;;;;;4.95;1.98;;;-5.00;99.90;;;;;;4994727;28;20042;-83
2021/12/26 07:34:59;;;;;;;4.60;1.85;;;-5.00;99.90;;;;;;4979061;28;20061;-83
2021/12/26 07:37:26;;;;;;;7.50;2.22;;;-5.00;99.90;;;;;;4994719;28;20047;-84
2021/12/26 07:39:52;;;;;;;6.60;1.95;;;-5.00;99.90;;;;;;4995946;28;20504;-83
2021/12/26 07:42:18;;;;;;;4.00;1.80;;;-5.00;99.90;;;;;;4994716;28;20038;-82
2021/12/26 07:44:43;;;;;;;5.68;2.28;;;-4.90;99.90;;;;;;4995299;28;20038;-84
2021/12/26 07:47:09;;;;;;;4.88;1.80;;;-5.00;99.90;;;;;;4994501;28;20395;-83
2021/12/26 07:49:35;;;;;;;3.95;2.00;;;-5.00;99.90;;;;;;4994998;28;20086;-83
2021/12/26 07:52:02;;;;;;;4.78;2.17;;;-5.00;99.90;;;;;;4994738;28;20488;-83
2021/12/26 07:54:28;;;;;;;4.97;2.22;;;-5.00;99.90;;;;;;4994223;28;20129;-83
2021/12/26 07:56:55;;;;;;;5.38;2.15;;;-5.00;99.90;;;;;;4994414;28;20177;-84
2021/12/26 07:59:20;;;;;;;4.78;2.40;;;-5.00;99.90;;;;;;4994262;28;20049;-82
2021/12/26 08:01:46;;;;;;;5.60;2.50;;;-4.90;99.90;;;;;;4977762;28;20046;-84
2021/12/26 08:04:14;;;;;;;5.53;2.40;;;-5.00;99.90;;;;;;4994134;28;20117;-83
2021/12/26 08:06:40;;;;;;;5.68;2.05;;;-4.90;99.90;;;;;;4994261;28;20357;-83
2021/12/26 08:09:07;;;;;;;3.42;2.00;;;-4.90;99.90;;;;;;4994121;28;20189;-82
2021/12/26 08:11:33;;;;;;;5.70;2.45;;;-4.90;99.90;;;;;;4994085;28;20050;-83
2021/12/26 08:13:59;;;;;;;6.47;2.58;;;-4.90;99.90;;;;;;4994015;28;20046;-83
2021/12/26 08:16:26;;;;;;;5.28;2.80;;;-4.90;99.90;;;;;;4993544;28;20129;-83
2021/12/26 08:18:52;;;;;;;6.85;2.78;;;-4.90;99.90;;;;;;4993687;28;20121;-83
2021/12/26 08:21:18;;;;;;;5.60;3.00;;;-4.90;99.90;;;;;;4995349;28;20438;-82
2021/12/26 08:23:44;;;;;;;4.88;2.22;;;-4.90;99.90;;;;;;4977753;28;20097;-82
2021/12/26 08:26:09;;;;;;;6.47;2.30;;;-4.90;99.90;;;;;;4993571;28;20496;-82
2021/12/26 08:28:35;;;;;;;6.88;2.33;;;-4.80;99.90;;;;;;4993530;28;20042;-83
2021/12/26 08:31:01;;;;;;;6.55;2.95;;;-4.80;99.90;;;;;;4995061;28;20472;-82
2021/12/26 08:33:27;;;;;;;4.15;2.38;;;-4.70;99.90;;;;;;4977722;28;20049;-82
2021/12/26 08:35:53;;;;;;;6.28;2.20;;;-4.60;99.90;;;;;;4993950;28;20188;-83
2021/12/26 08:38:22;;;;;;;5.82;2.38;;;-4.50;99.90;;;;;;4993566;28;20507;-83
2021/12/26 08:40:53;;;;;;;5.90;2.85;;;-4.30;99.90;;;;;;4993180;28;20042;-83
2021/12/26 08:43:19;;;;;;;4.75;2.28;;;-4.00;99.90;;;;;;4993667;28;20042;-83
2021/12/26 08:45:47;;;;;;;4.80;2.30;;;-3.30;99.90;;;;;;4993433;28;20049;-83
2021/12/26 08:48:12;;;;;;;6.53;2.83;;;-2.50;99.90;;;;;;4993472;28;20047;-83
2021/12/26 08:50:38;;;;;;;8.82;3.05;;;-2.00;99.90;;;;;;4993451;28;20073;-83
2021/12/26 08:53:04;;;;;;;5.07;2.30;;;-1.60;99.90;;;;;;4993493;28;20129;-84
2021/12/26 08:55:30;;;;;;;5.72;2.30;;;-1.20;99.90;;;;;;4977235;28;20053;-83
2021/12/26 08:57:56;;;;;;;5.63;2.70;;;-1.00;99.90;;;;;;4995254;28;20038;-82
2021/12/26 09:00:22;;;;;;;5.38;2.85;;;-0.80;99.90;;;;;;4993234;28;20038;-83
2021/12/26 09:02:49;;;;;;;5.78;2.67;;;-0.60;99.90;;;;;;4994499;28;20396;-84
2021/12/26 09:05:15;;;;;;;6.65;2.70;;;-0.90;99.90;;;;;;4993291;28;20053;-85
2021/12/26 09:07:42;;;;;;;6.80;2.70;;;-1.60;99.90;;;;;;4994559;28;20038;-85
2021/12/26 09:10:10;;;;;;;10.05;3.15;;;-2.30;99.90;;;;;;4997163;28;20133;-85
2021/12/26 09:12:36;;;;;;;6.57;3.42;;;-2.70;99.90;;;;;;4990635;28;20053;-85
2021/12/26 09:15:05;;;;;;;8.55;3.65;;;-3.00;99.90;;;;;;4997263;28;20120;-82
2021/12/26 09:17:30;;;;;;;8.68;2.95;;;-3.20;99.90;;;;;;5000829;28;20096;-83
2021/12/26 09:19:56;;;;;;;9.00;4.20;;;-3.30;99.90;;;;;;4995198;28;20046;-82
2021/12/26 09:22:22;;;;;;;7.32;3.28;;;-3.40;99.90;;;;;;4994867;28;20116;-82
2021/12/26 09:24:48;;;;;;;6.07;3.08;;;-3.50;99.90;;;;;;4994458;28;20061;-81
2021/12/26 09:27:14;;;;;;;11.23;3.75;;;-3.50;99.90;;;;;;4992296;28;20330;-82
2021/12/26 09:29:40;;;;;;;7.20;2.67;;;-3.50;99.90;;;;;;4992295;28;20042;-83
2021/12/26 09:32:07;;;;;;;5.45;2.38;;;-3.50;99.90;;;;;;4993971;28;20050;-81
2021/12/26 09:34:34;;;;;;;6.55;2.80;;;-3.50;99.90;;;;;;4992657;28;20042;-82
2021/12/26 09:37:01;;;;;;;7.50;3.05;;;-3.50;99.90;;;;;;4992592;28;20112;-83
2021/12/26 09:39:27;;;;;;;6.22;3.00;;;-3.50;99.90;;;;;;4992760;28;20050;-83
2021/12/26 09:41:53;;;;;;;7.45;3.13;;;-3.50;99.90;;;;;;4976051;28;20067;-82
2021/12/26 09:44:21;;;;;;;6.95;2.92;;;-3.50;99.90;;;;;;4994037;28;20432;-83
2021/12/26 09:46:47;;;;;;;6.50;2.55;;;-3.50;99.90;;;;;;4992211;28;20467;-82
2021/12/26 09:49:12;;;;;;;5.68;3.38;;;-3.40;99.90;;;;;;4992152;28;20151;-82
2021/12/26 09:51:38;;;;;;;6.50;3.55;;;-3.40;99.90;;;;;;4993399;28;20489;-83
2021/12/26 09:54:07;;;;;;;6.30;3.03;;;-3.40;99.90;;;;;;4993526;28;20503;-83
2021/12/26 09:56:32;;;;;;;6.63;3.03;;;-3.30;99.90;;;;;;4992368;28;20061;-83
2021/12/26 09:59:02;;;;;;;7.65;2.97;;;-3.30;99.90;;;;;;4992331;28;20476;-83
2021/12/26 10:01:37;;;;;;;7.43;3.13;;;-3.20;99.90;;;;;;4976126;28;20389;-81
2021/12/26 10:04:19;;;;;;;8.10;3.65;;;-3.20;99.90;;;;;;4992495;28;20108;-83
2021/12/26 10:06:46;;;;;;;8.68;3.60;;;-3.10;99.90;;;;;;4993919;28;20038;-84
2021/12/26 10:09:12;;;;;;;7.38;3.50;;;-3.10;99.90;;;;;;4992686;28;20077;-84
2021/12/26 10:11:43;;;;;;;5.53;3.20;;;-3.10;99.90;;;;;;4992527;28;20121;-84
2021/12/26 10:14:15;;;;;;;6.65;3.15;;;-3.10;99.90;;;;;;4992478;28;20101;-84
2021/12/26 10:16:49;;;;;;;7.32;3.70;;;-3.10;99.90;;;;;;4992293;28;20050;-85
2021/12/26 10:19:15;;;;;;;7.47;3.40;;;-3.10;99.90;;;;;;4993084;28;20046;-84
2021/12/26 10:21:52;;;;;;;9.63;3.33;;;-3.10;99.90;;;;;;4991792;28;20133;-83
2021/12/26 10:24:22;;;;;;;7.25;3.45;;;-3.00;99.90;;;;;;4991984;28;20053;-83
2021/12/26 10:26:57;;;;;;;9.43;3.65;;;-3.00;99.90;;;;;;4991836;28;20195;-82
2021/12/26 10:29:39;;;;;;;7.85;3.53;;;-2.90;99.90;;;;;;4975556;28;20042;-84
2021/12/26 10:32:07;;;;;;;8.43;3.97;;;-2.70;99.90;;;;;;4975708;28;20046;-83
2021/12/26 10:34:34;;;;;;;6.63;3.25;;;-2.50;99.90;;;;;;4975905;28;20042;-83
2021/12/26 10:37:03;;;;;;;8.45;3.58;;;-2.40;99.90;;;;;;4991859;28;20093;-83
2021/12/26 10:39:32;;;;;;;7.78;3.50;;;-2.30;99.90;;;;;;4994249;28;20105;-84
2021/12/26 10:42:06;;;;;;;8.32;3.60;;;-2.20;99.90;;;;;;4995443;28;20405;-84
2021/12/26 10:44:56;;;;;;;8.40;4.22;;;-2.20;99.90;;;;;;4995966;28;20034;-84
2021/12/26 10:47:24;;;;;;;7.68;4.07;;;-2.10;99.90;;;;;;4995893;28;20054;-85
2021/12/26 10:49:57;;;;;;;7.18;3.65;;;-2.00;99.90;;;;;;4996999;28;20045;-83
2021/12/26 10:52:31;;;;;;;12.93;4.47;;;-1.90;99.90;;;;;;4996150;28;20460;-83
2021/12/26 10:55:01;;;;;;;6.40;3.53;;;-1.80;99.90;;;;;;4995330;28;20046;-84
2021/12/26 10:57:26;;;;;;;7.70;3.70;;;-1.70;99.90;;;;;;4995527;28;20042;-84
2021/12/26 11:00:05;;;;;;;9.30;3.88;;;-1.70;99.90;;;;;;4995892;28;20377;-84
2021/12/26 11:02:34;;;;;;;9.20;4.10;;;-1.60;99.90;;;;;;4979896;28;20134;-84
2021/12/26 11:05:24;;;;;;;9.00;3.65;;;-1.50;99.90;;;;;;4995253;28;20046;-84
2021/12/26 11:07:56;;;;;;;7.10;3.83;;;-1.40;99.90;;;;;;4995067;28;20121;-84
2021/12/26 11:10:45;;;;;;;9.05;4.75;;;-1.30;99.90;;;;;;4995209;28;20046;-84
2021/12/26 11:13:17;;;;;;;7.38;4.00;;;-1.20;99.90;;;;;;4994751;28;20058;-84
2021/12/26 11:15:45;;;;;;;7.88;4.00;;;-1.10;99.90;;;;;;4995165;28;20088;-85
2021/12/26 11:18:13;;;;;;;7.40;4.10;;;-1.00;99.90;;;;;;4995319;28;20089;-85
2021/12/26 11:20:48;;;;;;;6.35;3.90;;;-0.90;99.90;;;;;;4995299;28;20049;-86
2021/12/26 11:23:19;;;;;;;7.80;3.92;;;-0.80;99.90;;;;;;4979026;28;20093;-86
2021/12/26 11:26:09;;;;;;;6.85;4.18;;;-0.70;99.90;;;;;;4995037;28;20039;-86
2021/12/26 11:28:38;;;;;;;10.38;4.70;;;-0.60;99.90;;;;;;4996534;28;20069;-85
2021/12/26 11:31:08;;;;;;;8.05;3.78;;;-0.70;99.90;;;;;;4978803;28;20038;-84
2021/12/26 11:33:34;;;;;;;9.07;4.50;;;-0.70;99.90;;;;;;4995038;28;20435;-85
2021/12/26 11:36:02;;;;;;;8.80;4.40;;;-0.60;99.90;;;;;;4995076;28;20129;-86
2021/12/26 11:38:28;;;;;;;10.00;4.75;;;-0.50;99.90;;;;;;4978725;28;20049;-84
2021/12/26 11:41:05;;;;;;;10.80;4.93;;;-0.40;99.90;;;;;;4994901;28;20400;-84
2021/12/26 11:43:57;;;;;;;8.32;4.15;;;-0.40;99.90;;;;;;4978680;28;20046;-85
2021/12/26 11:46:38;;;;;;;7.30;4.32;;;-0.30;99.90;;;;;;4994750;28;20035;-86
2021/12/26 11:49:23;;;;;;;9.10;4.50;;;-0.20;99.90;;;;;;4994725;28;20043;-86
2021/12/26 11:52:14;;;;;;;9.02;4.75;;;-0.10;99.90;;;;;;4993460;28;20049;-85
2021/12/26 11:54:43;;;;;;;12.85;5.07;;;0.00;99.90;;;;;;4977883;28;20046;-85
2021/12/26 11:57:55;;;;;;;7.93;4.53;;;0.10;99.90;;;;;;4994675;28;20196;-86
2021/12/26 12:00:33;;;;;;;7.65;4.43;;;0.20;99.90;;;;;;4978003;28;20050;-86
2021/12/26 12:03:01;;;;;;;8.80;4.72;;;0.20;99.90;;;;;;4978115;28;20058;-84
2021/12/26 12:05:29;;;;;;;8.98;4.25;;;0.30;99.90;;;;;;4987112;28;20039;-84
2021/12/26 12:08:00;;;;;;;9.23;4.18;;;0.20;99.90;;;;;;4977157;28;20117;-85
2021/12/26 12:10:40;;;;;;;12.05;5.25;;;0.20;99.90;;;;;;4977590;28;20045;-85
2021/12/26 12:13:10;;;;;;;9.95;4.70;;;0.20;99.90;;;;;;4994264;28;20042;-83
2021/12/26 12:15:41;;;;;;;7.20;4.40;;;0.30;99.90;;;;;;4993831;28;20083;-82
2021/12/26 12:18:36;;;;;;;7.93;4.55;;;0.40;99.90;;;;;;4993696;28;20515;-83
2021/12/26 12:21:30;;;;;;;7.68;4.90;;;0.50;99.90;;;;;;4975385;28;20281;-83
2021/12/26 12:24:18;;;;;;;10.20;4.82;;;0.60;99.90;;;;;;4994847;28;20054;-82
2021/12/26 12:26:50;;;;;;;8.13;4.70;;;0.60;99.90;;;;;;4994138;28;20054;-83
2021/12/26 12:29:41;;;;;;;9.35;4.85;;;0.60;99.90;;;;;;4977618;28;20038;-83
2021/12/26 12:32:07;;;;;;;8.10;4.90;;;0.70;99.90;;;;;;4985124;28;20058;-85
2021/12/26 12:34:48;;;;;;;8.32;4.40;;;0.60;99.90;;;;;;4993941;28;20046;-81
2021/12/26 12:37:39;;;;;;;8.93;5.25;;;0.70;99.90;;;;;;5000265;28;20138;-81
2021/12/26 12:40:29;;;;;;;7.75;4.40;;;0.80;99.90;;;;;;5003124;28;20042;-83
2021/12/26 12:43:09;;;;;;;9.55;5.00;;;0.90;99.90;;;;;;5015256;28;20069;-82
2021/12/26 12:46:06;;;;;;;10.20;4.75;;;0.90;99.90;;;;;;4986569;28;20121;-83
2021/12/26 12:48:41;;;;;;;10.40;5.10;;;1.00;99.90;;;;;;4983119;28;20057;-82
2021/12/26 12:51:16;;;;;;;7.80;4.47;;;0.90;99.90;;;;;;4977491;28;20050;-82
2021/12/26 12:53:50;;;;;;;9.88;4.85;;;1.00;99.90;;;;;;4977791;28;20404;-83
2021/12/26 12:56:33;;;;;;;8.98;5.05;;;1.00;99.90;;;;;;4993315;28;20085;-83
2021/12/26 12:59:19;;;;;;;9.23;5.45;;;1.10;99.90;;;;;;4995110;28;20049;-82
2021/12/26 13:02:02;;;;;;;8.38;4.68;;;1.20;99.90;;;;;;4976670;28;20397;-83
2021/12/26 13:04:38;;;;;;;8.68;5.32;;;1.30;99.90;;;;;;4993106;28;20084;-82
2021/12/26 13:07:06;;;;;;;8.43;4.80;;;1.40;99.90;;;;;;4993209;28;20503;-81
2021/12/26 13:09:33;;;;;;;8.40;4.72;;;1.70;99.90;;;;;;4994425;28;20365;-83
2021/12/26 13:12:02;;;;;;;8.35;5.00;;;1.90;99.90;;;;;;4992632;28;20038;-81
2021/12/26 13:14:41;;;;;;;10.50;5.18;;;1.80;99.90;;;;;;4993208;28;20463;-82
2021/12/26 13:17:12;;;;;;;9.80;5.03;;;1.80;99.90;;;;;;4993208;28;20054;-81
2021/12/26 13:19:38;;;;;;;8.98;4.95;;;1.90;99.90;;;;;;4994671;28;20460;-85
2021/12/26 13:22:04;;;;;;;9.77;4.75;;;2.10;99.90;;;;;;4992350;28;20046;-82
2021/12/26 13:24:36;;;;;;;10.73;5.35;;;2.10;99.90;;;;;;4992632;28;20116;-84
2021/12/26 13:27:03;;;;;;;10.07;5.60;;;2.00;99.90;;;;;;4998911;28;20447;-83
2021/12/26 13:29:30;;;;;;;8.55;4.80;;;1.90;99.90;;;;;;4985659;28;20092;-86
2021/12/26 13:31:56;;;;;;;10.57;5.30;;;2.10;99.90;;;;;;4998255;28;20082;-84
2021/12/26 13:34:21;;;;;;;10.45;5.63;;;2.30;99.90;;;;;;4992951;28;20052;-86
2021/12/26 13:36:48;;;;;;;10.10;5.40;;;2.40;99.90;;;;;;4993810;28;20125;-86
2021/12/26 13:39:23;;;;;;;8.05;4.78;;;2.30;99.90;;;;;;4993415;28;20034;-85
2021/12/26 13:41:50;;;;;;;;;;;2.00;99.90;;;;;;4976254;28;20101;-83
2021/12/26 13:44:17;;;;;;;10.15;5.30;;;2.00;99.90;;;;;;4992669;28;19921;-84
2021/12/26 13:46:43;;;;;;;8.90;4.97;;;2.10;99.90;;;;;;4993979;28;20034;-83
2021/12/26 13:49:12;;;;;;;11.43;5.28;;;2.30;99.90;;;;;;4992399;28;20073;-83
2021/12/26 13:51:54;;;;;;;10.43;5.15;;;2.40;99.90;;;;;;4993589;28;20392;-82
2021/12/26 13:54:23;;;;;;;8.82;4.80;;;2.30;99.90;;;;;;4993292;28;20106;-83
2021/12/26 13:56:56;;;;;;;9.93;4.97;;;2.20;99.90;;;;;;4976052;28;20038;-80
2021/12/26 13:59:27;;;;;;;9.57;5.28;;;1.90;99.90;;;;;;4992382;28;20434;-82
2021/12/26 14:01:53;;;;;;;8.43;5.28;;;1.70;99.90;;;;;;4991835;28;20104;-82
2021/12/26 14:04:22;;;;;;;9.68;5.50;;;1.50;99.90;;;;;;4975892;28;20125;-82
2021/12/26 14:06:49;;;;;;;9.27;5.43;;;1.20;99.90;;;;;;4992065;28;20048;-81
2021/12/26 14:09:15;;;;;;;9.63;5.70;;;1.30;99.90;;;;;;4991617;28;20042;-81
2021/12/26 14:11:40;;;;;;;11.40;5.85;;;1.40;99.90;;;;;;4991884;28;20211;-82
2021/12/26 14:14:08;;;;;;;8.60;5.13;;;1.50;99.90;;;;;;4992894;28;20365;-82
2021/12/26 14:16:41;;;;;;;12.68;6.88;;;1.40;99.90;;;;;;4997423;28;20038;-85
2021/12/26 14:19:09;;;;;;;10.82;5.68;;;1.50;99.90;;;;;;4996344;28;20100;-81
2021/12/26 14:21:47;;;;;;;10.18;5.43;;;1.40;99.90;;;;;;4979747;28;20089;-82
2021/12/26 14:24:21;;;;;;;11.23;6.00;;;1.20;99.90;;;;;;4996363;28;20556;-83
2021/12/26 14:26:47;;;;;;;9.80;6.28;;;0.90;99.90;;;;;;4996325;28;20073;-83
2021/12/26 14:29:17;;;;;;;10.35;6.63;;;0.60;99.90;;;;;;4995971;28;20049;-84
2021/12/26 14:31:52;;;;;;;9.85;5.68;;;0.40;99.90;;;;;;4996687;28;20038;-83
2021/12/26 14:34:27;;;;;;;10.45;5.80;;;0.30;99.90;;;;;;4996199;28;20046;-83
2021/12/26 14:37:01;;;;;;;9.88;6.10;;;0.10;99.90;;;;;;4995902;28;20034;-82
2021/12/26 14:39:27;;;;;;;9.90;5.83;;;0.00;99.90;;;;;;4979837;28;20093;-82
2021/12/26 14:41:55;;;;;;;15.20;6.20;;;-0.10;99.90;;;;;;5003455;28;20053;-84
2021/12/26 14:44:27;;;;;;;12.15;6.75;;;-0.20;99.90;;;;;;5016791;28;20038;-83
2021/12/26 14:47:18;;;;;;;11.23;6.00;;;-0.30;99.90;;;;;;5015636;28;20045;-82
2021/12/26 14:50:00;;;;;;;10.73;5.82;;;-0.40;99.90;;;;;;5015125;28;20046;-82
2021/12/26 14:52:28;;;;;;;10.50;6.03;;;-0.40;99.90;;;;;;4998638;28;20053;-83
2021/12/26 14:54:58;;;;;;;11.38;6.82;;;-0.50;99.90;;;;;;5006838;28;20053;-82
2021/12/26 14:57:25;;;;;;;12.63;6.07;;;-0.50;99.90;;;;;;4979626;28;20038;-83
2021/12/26 14:59:54;;;;;;;9.73;5.47;;;-0.60;99.90;;;;;;4996701;28;20101;-84
2021/12/26 15:02:21;;;;;;;12.15;6.68;;;-0.60;99.90;;;;;;4989088;28;20130;-83
2021/12/26 15:04:51;;;;;;;11.98;5.68;;;-0.70;99.90;;;;;;4992503;28;20034;-82
2021/12/26 15:07:22;;;;;;;11.48;6.30;;;-0.80;99.90;;;;;;5003053;28;20038;-82
2021/12/26 15:09:54;;;;;;;11.88;6.82;;;-0.80;99.90;;;;;;5001968;28;20047;-81
2021/12/26 15:12:43;;;;;;;11.38;6.20;;;-0.80;99.90;;;;;;5009080;28;20050;-82
2021/12/26 15:15:20;;;;;;;11.35;6.20;;;-0.80;99.90;;;;;;5016437;28;20037;-83
2021/12/26 15:18:02;;;;;;;13.00;6.18;;;-0.90;99.90;;;;;;4994999;28;20069;-83
2021/12/26 15:20:40;;;;;;;10.73;6.20;;;-0.90;99.90;;;;;;5006985;28;20384;-82
2021/12/26 15:23:17;;;;;;;12.73;6.85;;;-1.00;99.90;;;;;;4993092;28;20056;-83
2021/12/26 15:25:58;;;;;;;11.73;6.57;;;-1.10;99.90;;;;;;5006309;28;20034;-83
2021/12/26 15:28:36;;;;;;;12.18;6.43;;;-1.00;99.90;;;;;;4998533;28;20057;-82
2021/12/26 15:31:11;;;;;;;11.35;6.25;;;-1.10;99.90;;;;;;5013794;28;20172;-83
2021/12/26 15:33:54;;;;;;;12.50;6.75;;;-1.10;99.90;;;;;;5011039;28;20056;-83
2021/12/26 15:36:28;;;;;;;14.27;6.88;;;-1.10;99.90;;;;;;5011298;28;20034;-84
2021/12/26 15:39:15;;;;;;;12.05;6.90;;;-1.10;99.90;;;;;;5013042;28;20558;-84
2021/12/26 15:41:49;;;;;;;11.73;6.95;;;-1.10;99.90;;;;;;5007051;28;20050;-84
2021/12/26 15:44:16;;;;;;;11.27;6.32;;;-1.20;99.90;;;;;;4994523;28;20050;-88
2021/12/26 15:46:43;;;;;;;11.77;6.53;;;-1.20;99.90;;;;;;4980391;28;20044;-84
2021/12/26 15:49:10;;;;;;;11.10;5.80;;;-1.20;99.90;;;;;;5013174;28;20068;-84
2021/12/26 15:51:37;;;;;;;12.02;6.75;;;-1.30;99.90;;;;;;5013018;28;20038;-84
2021/12/26 15:54:04;;;;;;;10.32;6.43;;;-1.30;99.90;;;;;;4988514;28;20034;-80
2021/12/26 15:56:30;;;;;;;14.15;6.97;;;-1.30;99.90;;;;;;4995113;28;20105;-84
2021/12/26 15:58:56;;;;;;;11.77;6.53;;;-1.30;99.90;;;;;;5012573;28;20034;-85
2021/12/26 16:01:23;;;;;;;11.23;6.47;;;-1.40;99.90;;;;;;5012523;28;20046;-85
2021/12/26 16:06:31;;;;;;;12.82;6.82;;;-1.40;99.90;;;;;;5588053;23;20101;-84
2021/12/26 16:08:58;;;;;;;12.63;6.82;;;-1.40;99.90;;;;;;4974219;28;20129;-85
2021/12/26 16:13:53;;;;;;;12.77;7.15;;;-1.40;99.90;;;;;;4990824;28;20483;-84
2021/12/26 16:16:19;;;;;;;14.70;7.28;;;-1.40;99.90;;;;;;4992644;28;20047;-84
2021/12/26 16:18:45;;;;;;;10.95;6.30;;;-1.50;99.90;;;;;;4993392;28;20038;-86
2021/12/26 16:21:12;;;;;;;12.05;6.40;;;-1.50;99.90;;;;;;4993449;28;20046;-86
2021/12/26 16:23:37;;;;;;;12.82;7.13;;;-1.50;99.90;;;;;;4992774;28;20046;-86
2021/12/26 16:26:04;;;;;;;16.75;7.60;;;-1.50;99.90;;;;;;4993100;28;20117;-87
2021/12/26 16:28:30;;;;;;;16.80;7.68;;;-1.50;99.90;;;;;;4992952;28;20034;-88
2021/12/26 16:30:55;;;;;;;13.45;7.10;;;-1.60;99.90;;;;;;4993096;28;20443;-86
2021/12/26 16:33:21;;;;;;;12.50;6.72;;;-1.60;99.90;;;;;;4994610;28;20046;-85
2021/12/26 16:35:47;;;;;;;11.60;6.82;;;-1.60;99.90;;;;;;4992698;28;20137;-86
2021/12/26 16:38:15;;;;;;;12.45;7.03;;;-1.60;99.90;;;;;;4992381;28;20042;-86
2021/12/26 16:40:43;;;;;;;12.38;6.70;;;-1.60;99.90;;;;;;4992532;28;20043;-84
2021/12/26 16:43:08;;;;;;;13.65;6.72;;;-1.60;99.90;;;;;;4992368;28;20038;-86
2021/12/26 16:45:34;;;;;;;12.45;6.63;;;-1.70;99.90;;;;;;4992633;28;20050;-83
2021/12/26 16:48:00;;;;;;;11.60;6.70;;;-1.60;99.90;;;;;;4992238;28;20141;-82
2021/12/26 16:50:26;;;;;;;12.73;7.05;;;-1.70;99.90;;;;;;4992440;28;20047;-83
2021/12/26 16:52:52;;;;;;;14.73;6.90;;;-1.70;99.90;;;;;;4992758;28;20058;-82
2021/12/26 16:55:24;;;;;;;13.02;7.32;;;-1.70;99.90;;;;;;4992063;28;20057;-83
2021/12/26 16:57:50;;;;;;;15.75;7.53;;;-1.60;99.90;;;;;;4992320;28;20404;-75
2021/12/26 17:00:17;;;;;;;13.38;7.28;;;-1.70;99.90;;;;;;4992507;28;20054;-83
2021/12/26 17:02:42;;;;;;;12.98;6.75;;;-1.70;99.90;;;;;;4991892;28;20042;-80
2021/12/26 17:05:08;;;;;;;13.68;6.43;;;-1.70;99.90;;;;;;4992186;28;20049;-83
2021/12/26 17:07:36;;;;;;;14.88;7.53;;;-1.70;99.90;;;;;;4976233;28;20077;-80
2021/12/26 17:10:03;;;;;;;14.13;7.28;;;-1.60;99.90;;;;;;4975429;28;20129;-83
2021/12/26 17:12:29;;;;;;;13.25;7.00;;;-1.60;99.90;;;;;;4991757;28;20510;-81
2021/12/26 17:14:54;;;;;;;13.45;6.63;;;-1.50;99.90;;;;;;4991892;28;20038;-83
2021/12/26 17:17:20;;;;;;;13.48;7.38;;;-1.40;99.90;;;;;;4975670;28;20381;-83
2021/12/26 17:19:45;;;;;;;11.73;6.38;;;-1.40;99.90;;;;;;4975952;28;20054;-83
2021/12/26 17:22:11;;;;;;;14.70;7.00;;;-1.30;99.90;;;;;;4975584;28;20042;-85
2021/12/26 17:24:37;;;;;;;12.68;6.90;;;-1.30;99.90;;;;;;4992429;28;20377;-84
2021/12/26 17:27:15;;;;;;;12.82;6.82;;;-1.20;99.90;;;;;;4975711;28;20117;-84
2021/12/26 17:29:42;;;;;;;15.45;7.50;;;-1.20;99.90;;;;;;4993550;28;20042;-83
2021/12/26 17:32:08;;;;;;;13.25;6.65;;;-1.10;99.90;;;;;;4975621;28;20038;-80
2021/12/26 17:34:34;;;;;;;14.95;8.05;;;-1.10;99.90;;;;;;4991687;28;20038;-84
2021/12/26 17:36:59;;;;;;;13.60;6.95;;;-1.10;99.90;;;;;;4975620;28;20133;-82
2021/12/26 17:39:25;;;;;;;13.88;7.65;;;-1.00;99.90;;;;;;4992005;28;20121;-87
2021/12/26 17:41:51;;;;;;;13.63;6.85;;;-1.00;99.90;;;;;;4993255;28;20096;-81
2021/12/26 17:44:16;;;;;;;12.52;6.80;;;-1.00;99.90;;;;;;4992131;28;20057;-84
2021/12/26 17:46:42;;;;;;;12.95;7.05;;;-1.00;99.90;;;;;;4992122;28;20543;-83
2021/12/26 17:49:07;;;;;;;14.95;7.65;;;-0.90;99.90;;;;;;4991293;28;20118;-83
2021/12/26 17:51:33;;;;;;;14.98;7.60;;;-0.90;99.90;;;;;;4975915;28;20030;-83
2021/12/26 17:53:59;;;;;;;15.85;7.28;;;-0.90;99.90;;;;;;4991951;28;20465;-82
2021/12/26 17:56:27;;;;;;;14.52;7.53;;;-0.90;99.90;;;;;;4992054;28;20100;-81
2021/12/26 17:58:53;;;;;;;13.55;7.13;;;-0.90;99.90;;;;;;4991855;28;20042;-85
2021/12/26 18:01:19;;;;;;;16.33;8.35;;;-0.90;99.90;;;;;;4975383;28;20049;-83
2021/12/26 18:03:44;;;;;;;13.52;7.45;;;-0.80;99.90;;;;;;4991643;28;20089;-82